sensor_id;sensor_type;location;lat;lon;timestamp;P1;durP1;ratioP1;P2;durP2;ratioP2
70780;SDS011;59514;48.810;2.134;2023-04-03T11:14:13;2.22;;;2.03;;
70780;SDS011;59514;48.810;2.134;2023-04-03T11:16:47;1.98;;;1.67;;
70780;SDS011;59514;48.810;2.134;2023-04-03T11:19:17;2.17;;;2.05;;
70780;SDS011;59514;48.810;2.134;2023-04-03T11:22:08;2.42;;;2.00;;
70780;SDS011;59514;48.810;2.134;2023-04-03T11:24:41;2.00;;;1.80;;
70780;SDS011;59514;48.810;2.134;2023-04-03T11:27:11;1.98;;;1.85;;
70780;SDS011;59514;48.810;2.134;2023-04-03T11:29:43;1.80;;;1.70;;
70780;SDS011;59514;48.810;2.134;2023-04-03T11:34:41;1.70;;;1.60;;
70780;SDS011;59514;48.810;2.134;2023-04-03T11:39:50;2.13;;;1.85;;
70780;SDS011;59514;48.810;2.134;2023-04-03T11:42:38;1.70;;;1.60;;
70780;SDS011;59514;48.810;2.134;2023-04-03T11:46:06;2.17;;;1.58;;
70780;SDS011;59514;48.810;2.134;2023-04-03T11:50:45;1.65;;;1.42;;
70780;SDS011;59514;48.810;2.134;2023-04-03T11:58:16;2.00;;;1.42;;
70780;SDS011;59514;48.810;2.134;2023-04-03T12:14:21;1.70;;;1.60;;
70780;SDS011;59514;48.810;2.134;2023-04-03T12:16:43;1.30;;;1.20;;
70780;SDS011;59514;48.810;2.134;2023-04-03T12:26:44;1.60;;;1.10;;
70780;SDS011;59514;48.810;2.134;2023-04-03T12:29:21;2.30;;;1.42;;
70780;SDS011;59514;48.810;2.134;2023-04-03T12:48:34;1.55;;;0.95;;
70780;SDS011;59514;48.810;2.134;2023-04-03T12:51:14;1.98;;;1.10;;
70780;SDS011;59514;48.810;2.134;2023-04-03T12:53:46;1.52;;;1.25;;
70780;SDS011;59514;48.810;2.134;2023-04-03T12:56:24;1.35;;;1.23;;
70780;SDS011;59514;48.810;2.134;2023-04-03T12:58:52;2.45;;;1.23;;
70780;SDS011;59514;48.810;2.134;2023-04-03T13:01:23;3.17;;;1.38;;
70780;SDS011;59514;48.810;2.134;2023-04-03T13:03:51;1.10;;;0.90;;
70780;SDS011;59514;48.810;2.134;2023-04-03T13:06:21;1.27;;;1.00;;
70780;SDS011;59514;48.810;2.134;2023-04-03T13:08:50;1.88;;;0.90;;
70780;SDS011;59514;48.810;2.134;2023-04-03T13:11:23;1.63;;;1.20;;
70780;SDS011;59514;48.810;2.134;2023-04-03T13:14:00;2.38;;;1.30;;
70780;SDS011;59514;48.810;2.134;2023-04-03T13:16:29;2.40;;;1.35;;
70780;SDS011;59514;48.810;2.134;2023-04-03T13:18:56;1.67;;;1.20;;
70780;SDS011;59514;48.810;2.134;2023-04-03T13:21:26;1.10;;;1.00;;
70780;SDS011;59514;48.810;2.134;2023-04-03T13:23:58;1.13;;;0.90;;
70780;SDS011;59514;48.810;2.134;2023-04-03T13:26:29;1.00;;;1.00;;
70780;SDS011;59514;48.810;2.134;2023-04-03T13:28:59;0.80;;;0.80;;
70780;SDS011;59514;48.810;2.134;2023-04-03T13:31:29;2.47;;;1.30;;
70780;SDS011;59514;48.810;2.134;2023-04-03T13:36:38;1.70;;;0.90;;
70780;SDS011;59514;48.810;2.134;2023-04-03T13:41:41;0.88;;;0.80;;
70780;SDS011;59514;48.810;2.134;2023-04-03T13:46:50;1.17;;;1.02;;
70780;SDS011;59514;48.810;2.134;2023-04-03T13:51:51;1.55;;;1.00;;
70780;SDS011;59514;48.810;2.134;2023-04-03T13:54:22;1.08;;;0.98;;
70780;SDS011;59514;48.810;2.134;2023-04-03T13:56:56;1.25;;;1.00;;
70780;SDS011;59514;48.810;2.134;2023-04-03T13:59:23;2.05;;;1.25;;
70780;SDS011;59514;48.810;2.134;2023-04-03T14:01:54;1.35;;;1.08;;
70780;SDS011;59514;48.810;2.134;2023-04-03T14:04:27;3.30;;;1.13;;
70780;SDS011;59514;48.810;2.134;2023-04-03T14:06:57;1.20;;;1.10;;
70780;SDS011;59514;48.810;2.134;2023-04-03T14:09:23;1.92;;;1.40;;
70780;SDS011;59514;48.810;2.134;2023-04-03T14:11:52;0.98;;;0.90;;
70780;SDS011;59514;48.810;2.134;2023-04-03T14:14:21;1.05;;;0.93;;
70780;SDS011;59514;48.810;2.134;2023-04-03T14:16:58;1.90;;;1.02;;
70780;SDS011;59514;48.810;2.134;2023-04-03T14:19:27;1.00;;;0.90;;
70780;SDS011;59514;48.810;2.134;2023-04-03T14:21:55;1.13;;;1.02;;
70780;SDS011;59514;48.810;2.134;2023-04-03T14:24:22;1.73;;;0.85;;
70780;SDS011;59514;48.810;2.134;2023-04-03T14:26:49;1.80;;;1.35;;
70780;SDS011;59514;48.810;2.134;2023-04-03T14:29:16;1.27;;;0.80;;
70780;SDS011;59514;48.810;2.134;2023-04-03T14:31:42;0.88;;;0.70;;
70780;SDS011;59514;48.810;2.134;2023-04-03T14:34:10;1.08;;;0.98;;
70780;SDS011;59514;48.810;2.134;2023-04-03T14:36:36;2.17;;;0.90;;
70780;SDS011;59514;48.810;2.134;2023-04-03T14:39:03;2.22;;;0.85;;
70780;SDS011;59514;48.810;2.134;2023-04-03T14:41:30;0.95;;;0.90;;
70780;SDS011;59514;48.810;2.134;2023-04-03T14:43:55;1.75;;;1.02;;
70780;SDS011;59514;48.810;2.134;2023-04-03T14:46:25;1.42;;;0.88;;
70780;SDS011;59514;48.810;2.134;2023-04-03T14:48:54;1.15;;;0.98;;
70780;SDS011;59514;48.810;2.134;2023-04-03T14:51:20;1.67;;;0.90;;
70780;SDS011;59514;48.810;2.134;2023-04-03T14:53:45;2.20;;;1.27;;
70780;SDS011;59514;48.810;2.134;2023-04-03T14:56:12;1.63;;;1.20;;
70780;SDS011;59514;48.810;2.134;2023-04-03T14:58:40;1.17;;;1.00;;
70780;SDS011;59514;48.810;2.134;2023-04-03T15:01:06;1.60;;;1.05;;
70780;SDS011;59514;48.810;2.134;2023-04-03T15:03:31;1.30;;;1.00;;
70780;SDS011;59514;48.810;2.134;2023-04-03T15:05:57;1.10;;;0.95;;
70780;SDS011;59514;48.810;2.134;2023-04-03T15:08:24;2.15;;;1.05;;
70780;SDS011;59514;48.810;2.134;2023-04-03T15:10:52;1.05;;;1.05;;
70780;SDS011;59514;48.810;2.134;2023-04-03T15:13:18;1.38;;;0.98;;
70780;SDS011;59514;48.810;2.134;2023-04-03T15:15:45;1.20;;;1.08;;
70780;SDS011;59514;48.810;2.134;2023-04-03T15:18:19;1.10;;;0.80;;
70780;SDS011;59514;48.810;2.134;2023-04-03T15:20:47;1.67;;;1.10;;
70780;SDS011;59514;48.810;2.134;2023-04-03T15:23:13;3.08;;;1.02;;
70780;SDS011;59514;48.810;2.134;2023-04-03T15:25:41;0.90;;;0.90;;
70780;SDS011;59514;48.810;2.134;2023-04-03T15:28:08;0.80;;;0.70;;
70780;SDS011;59514;48.810;2.134;2023-04-03T15:30:40;1.95;;;0.98;;
70780;SDS011;59514;48.810;2.134;2023-04-03T15:33:05;1.17;;;1.08;;
70780;SDS011;59514;48.810;2.134;2023-04-03T15:35:31;1.08;;;0.95;;
70780;SDS011;59514;48.810;2.134;2023-04-03T15:37:56;1.30;;;1.10;;
70780;SDS011;59514;48.810;2.134;2023-04-03T15:40:21;1.58;;;0.98;;
70780;SDS011;59514;48.810;2.134;2023-04-03T15:42:47;0.85;;;0.85;;
70780;SDS011;59514;48.810;2.134;2023-04-03T15:45:12;1.42;;;0.82;;
70780;SDS011;59514;48.810;2.134;2023-04-03T15:47:37;1.50;;;1.13;;
70780;SDS011;59514;48.810;2.134;2023-04-03T15:50:04;1.13;;;1.02;;
70780;SDS011;59514;48.810;2.134;2023-04-03T15:52:31;0.90;;;0.80;;
70780;SDS011;59514;48.810;2.134;2023-04-03T15:54:57;1.38;;;1.20;;
70780;SDS011;59514;48.810;2.134;2023-04-03T15:57:22;1.80;;;1.10;;
70780;SDS011;59514;48.810;2.134;2023-04-03T15:59:51;1.30;;;1.00;;
70780;SDS011;59514;48.810;2.134;2023-04-03T16:02:17;1.00;;;0.85;;
70780;SDS011;59514;48.810;2.134;2023-04-03T16:04:43;1.15;;;0.98;;
70780;SDS011;59514;48.810;2.134;2023-04-03T16:07:08;1.17;;;1.08;;
70780;SDS011;59514;48.810;2.134;2023-04-03T16:09:34;1.00;;;0.90;;
70780;SDS011;59514;48.810;2.134;2023-04-03T16:12:00;1.85;;;1.08;;
70780;SDS011;59514;48.810;2.134;2023-04-03T16:14:25;1.65;;;1.10;;
70780;SDS011;59514;48.810;2.134;2023-04-03T16:16:52;2.10;;;1.02;;
70780;SDS011;59514;48.810;2.134;2023-04-03T16:19:18;1.88;;;1.17;;
70780;SDS011;59514;48.810;2.134;2023-04-03T16:21:43;1.85;;;1.13;;
70780;SDS011;59514;48.810;2.134;2023-04-03T16:24:09;1.23;;;1.13;;
70780;SDS011;59514;48.810;2.134;2023-04-03T16:26:34;1.55;;;0.95;;
70780;SDS011;59514;48.810;2.134;2023-04-03T16:28:59;1.13;;;1.00;;
70780;SDS011;59514;48.810;2.134;2023-04-03T16:31:25;2.03;;;1.35;;
70780;SDS011;59514;48.810;2.134;2023-04-03T16:33:51;2.60;;;1.23;;
70780;SDS011;59514;48.810;2.134;2023-04-03T16:36:16;2.22;;;1.48;;
70780;SDS011;59514;48.810;2.134;2023-04-03T16:38:42;1.25;;;1.10;;
70780;SDS011;59514;48.810;2.134;2023-04-03T16:41:07;1.23;;;1.13;;
70780;SDS011;59514;48.810;2.134;2023-04-03T16:43:32;1.38;;;1.05;;
70780;SDS011;59514;48.810;2.134;2023-04-03T16:45:58;2.85;;;1.38;;
70780;SDS011;59514;48.810;2.134;2023-04-03T16:48:24;2.15;;;1.38;;
70780;SDS011;59514;48.810;2.134;2023-04-03T16:50:49;1.20;;;1.10;;
70780;SDS011;59514;48.810;2.134;2023-04-03T16:53:18;1.15;;;0.93;;
70780;SDS011;59514;48.810;2.134;2023-04-03T16:55:43;1.85;;;1.25;;
70780;SDS011;59514;48.810;2.134;2023-04-03T16:58:09;1.10;;;1.00;;
70780;SDS011;59514;48.810;2.134;2023-04-03T17:00:35;1.30;;;1.00;;
70780;SDS011;59514;48.810;2.134;2023-04-03T17:03:01;1.48;;;1.30;;
70780;SDS011;59514;48.810;2.134;2023-04-03T17:05:26;0.90;;;0.90;;
70780;SDS011;59514;48.810;2.134;2023-04-03T17:07:51;2.17;;;1.20;;
70780;SDS011;59514;48.810;2.134;2023-04-03T17:10:17;1.20;;;1.10;;
70780;SDS011;59514;48.810;2.134;2023-04-03T17:12:42;2.10;;;1.20;;
70780;SDS011;59514;48.810;2.134;2023-04-03T17:15:08;1.20;;;1.10;;
70780;SDS011;59514;48.810;2.134;2023-04-03T17:17:34;1.40;;;1.23;;
70780;SDS011;59514;48.810;2.134;2023-04-03T17:20:00;1.45;;;0.93;;
70780;SDS011;59514;48.810;2.134;2023-04-03T17:22:25;1.48;;;1.23;;
70780;SDS011;59514;48.810;2.134;2023-04-03T17:24:52;2.28;;;1.10;;
70780;SDS011;59514;48.810;2.134;2023-04-03T17:27:17;1.35;;;1.13;;
70780;SDS011;59514;48.810;2.134;2023-04-03T17:29:42;1.20;;;1.05;;
70780;SDS011;59514;48.810;2.134;2023-04-03T17:32:08;1.40;;;1.00;;
70780;SDS011;59514;48.810;2.134;2023-04-03T17:34:33;1.15;;;1.10;;
70780;SDS011;59514;48.810;2.134;2023-04-03T17:37:00;1.42;;;1.30;;
70780;SDS011;59514;48.810;2.134;2023-04-03T17:39:26;1.73;;;1.00;;
70780;SDS011;59514;48.810;2.134;2023-04-03T17:41:51;1.20;;;1.10;;
70780;SDS011;59514;48.810;2.134;2023-04-03T17:44:18;1.45;;;1.00;;
70780;SDS011;59514;48.810;2.134;2023-04-03T17:46:44;1.13;;;0.95;;
70780;SDS011;59514;48.810;2.134;2023-04-03T17:49:09;2.03;;;1.20;;
70780;SDS011;59514;48.810;2.134;2023-04-03T17:51:38;1.33;;;0.95;;
70780;SDS011;59514;48.810;2.134;2023-04-03T17:54:07;2.05;;;1.20;;
70780;SDS011;59514;48.810;2.134;2023-04-03T17:56:33;1.30;;;1.20;;
70780;SDS011;59514;48.810;2.134;2023-04-03T17:58:58;1.20;;;1.10;;
70780;SDS011;59514;48.810;2.134;2023-04-03T18:01:25;1.30;;;1.10;;
70780;SDS011;59514;48.810;2.134;2023-04-03T18:03:53;1.15;;;1.00;;
70780;SDS011;59514;48.810;2.134;2023-04-03T18:06:21;1.92;;;1.20;;
70780;SDS011;59514;48.810;2.134;2023-04-03T18:08:51;1.38;;;1.27;;
70780;SDS011;59514;48.810;2.134;2023-04-03T18:11:19;1.50;;;1.13;;
70780;SDS011;59514;48.810;2.134;2023-04-03T18:13:51;2.00;;;1.40;;
70780;SDS011;59514;48.810;2.134;2023-04-03T18:16:16;1.70;;;1.60;;
70780;SDS011;59514;48.810;2.134;2023-04-03T18:18:41;2.45;;;1.70;;
70780;SDS011;59514;48.810;2.134;2023-04-03T18:21:08;2.90;;;1.42;;
70780;SDS011;59514;48.810;2.134;2023-04-03T18:23:36;1.40;;;1.30;;
70780;SDS011;59514;48.810;2.134;2023-04-03T18:26:05;1.40;;;1.30;;
70780;SDS011;59514;48.810;2.134;2023-04-03T18:28:33;2.08;;;1.50;;
70780;SDS011;59514;48.810;2.134;2023-04-03T18:30:59;1.45;;;1.23;;
70780;SDS011;59514;48.810;2.134;2023-04-03T18:33:25;1.73;;;1.23;;
70780;SDS011;59514;48.810;2.134;2023-04-03T18:35:50;1.38;;;1.27;;
70780;SDS011;59514;48.810;2.134;2023-04-03T18:38:15;2.45;;;1.50;;
70780;SDS011;59514;48.810;2.134;2023-04-03T18:40:41;2.08;;;1.70;;
70780;SDS011;59514;48.810;2.134;2023-04-03T18:43:08;2.03;;;1.58;;
70780;SDS011;59514;48.810;2.134;2023-04-03T18:45:36;2.72;;;1.60;;
70780;SDS011;59514;48.810;2.134;2023-04-03T18:48:02;1.45;;;1.35;;
70780;SDS011;59514;48.810;2.134;2023-04-03T18:50:27;1.67;;;1.33;;
70780;SDS011;59514;48.810;2.134;2023-04-03T18:52:53;1.70;;;1.27;;
70780;SDS011;59514;48.810;2.134;2023-04-03T18:55:18;1.77;;;1.67;;
70780;SDS011;59514;48.810;2.134;2023-04-03T18:57:47;1.80;;;1.65;;
70780;SDS011;59514;48.810;2.134;2023-04-03T19:00:13;2.78;;;2.55;;
70780;SDS011;59514;48.810;2.134;2023-04-03T19:02:40;1.45;;;1.35;;
70780;SDS011;59514;48.810;2.134;2023-04-03T19:05:06;1.67;;;1.40;;
70780;SDS011;59514;48.810;2.134;2023-04-03T19:07:33;1.67;;;1.40;;
70780;SDS011;59514;48.810;2.134;2023-04-03T19:09:59;1.75;;;1.38;;
70780;SDS011;59514;48.810;2.134;2023-04-03T19:12:25;1.60;;;1.40;;
70780;SDS011;59514;48.810;2.134;2023-04-03T19:14:50;2.78;;;1.60;;
70780;SDS011;59514;48.810;2.134;2023-04-03T19:17:15;1.65;;;1.35;;
70780;SDS011;59514;48.810;2.134;2023-04-03T19:19:41;1.52;;;1.40;;
70780;SDS011;59514;48.810;2.134;2023-04-03T19:22:06;1.50;;;1.30;;
70780;SDS011;59514;48.810;2.134;2023-04-03T19:24:32;3.03;;;2.28;;
70780;SDS011;59514;48.810;2.134;2023-04-03T19:26:58;2.03;;;1.60;;
70780;SDS011;59514;48.810;2.134;2023-04-03T19:29:23;1.50;;;1.40;;
70780;SDS011;59514;48.810;2.134;2023-04-03T19:31:49;1.65;;;1.30;;
70780;SDS011;59514;48.810;2.134;2023-04-03T19:34:14;2.53;;;1.50;;
70780;SDS011;59514;48.810;2.134;2023-04-03T19:36:39;2.42;;;1.48;;
70780;SDS011;59514;48.810;2.134;2023-04-03T19:39:06;1.73;;;1.30;;
70780;SDS011;59514;48.810;2.134;2023-04-03T19:41:32;3.85;;;1.70;;
70780;SDS011;59514;48.810;2.134;2023-04-03T19:43:59;2.53;;;1.77;;
70780;SDS011;59514;48.810;2.134;2023-04-03T19:46:25;1.80;;;1.30;;
70780;SDS011;59514;48.810;2.134;2023-04-03T19:48:52;2.33;;;1.50;;
70780;SDS011;59514;48.810;2.134;2023-04-03T19:51:18;3.35;;;1.60;;
70780;SDS011;59514;48.810;2.134;2023-04-03T19:53:43;2.03;;;1.65;;
70780;SDS011;59514;48.810;2.134;2023-04-03T19:56:11;1.42;;;1.33;;
70780;SDS011;59514;48.810;2.134;2023-04-03T19:58:36;1.83;;;1.73;;
70780;SDS011;59514;48.810;2.134;2023-04-03T20:01:03;1.77;;;1.55;;
70780;SDS011;59514;48.810;2.134;2023-04-03T20:03:28;1.70;;;1.50;;
70780;SDS011;59514;48.810;2.134;2023-04-03T20:05:54;3.88;;;2.00;;
70780;SDS011;59514;48.810;2.134;2023-04-03T20:08:21;2.00;;;1.80;;
70780;SDS011;59514;48.810;2.134;2023-04-03T20:10:47;3.38;;;1.60;;
70780;SDS011;59514;48.810;2.134;2023-04-03T20:13:12;1.65;;;1.50;;
70780;SDS011;59514;48.810;2.134;2023-04-03T20:15:38;2.10;;;1.63;;
70780;SDS011;59514;48.810;2.134;2023-04-03T20:18:08;1.98;;;1.63;;
70780;SDS011;59514;48.810;2.134;2023-04-03T20:20:36;2.42;;;1.52;;
70780;SDS011;59514;48.810;2.134;2023-04-03T20:23:07;2.08;;;1.85;;
70780;SDS011;59514;48.810;2.134;2023-04-03T20:25:38;2.20;;;1.80;;
70780;SDS011;59514;48.810;2.134;2023-04-03T20:28:04;2.85;;;2.15;;
70780;SDS011;59514;48.810;2.134;2023-04-03T20:30:29;3.17;;;1.85;;
70780;SDS011;59514;48.810;2.134;2023-04-03T20:32:55;2.60;;;1.90;;
70780;SDS011;59514;48.810;2.134;2023-04-03T20:35:23;2.40;;;2.03;;
70780;SDS011;59514;48.810;2.134;2023-04-03T20:37:49;2.78;;;1.92;;
70780;SDS011;59514;48.810;2.134;2023-04-03T20:40:14;2.83;;;2.33;;
70780;SDS011;59514;48.810;2.134;2023-04-03T20:42:39;3.35;;;2.53;;
70780;SDS011;59514;48.810;2.134;2023-04-03T20:45:05;4.15;;;2.63;;
70780;SDS011;59514;48.810;2.134;2023-04-03T20:47:31;2.95;;;2.17;;
70780;SDS011;59514;48.810;2.134;2023-04-03T20:49:56;2.40;;;2.20;;
70780;SDS011;59514;48.810;2.134;2023-04-03T20:52:21;3.47;;;2.33;;
70780;SDS011;59514;48.810;2.134;2023-04-03T20:54:47;3.00;;;2.35;;
70780;SDS011;59514;48.810;2.134;2023-04-03T20:57:12;3.03;;;2.35;;
70780;SDS011;59514;48.810;2.134;2023-04-03T20:59:38;4.57;;;2.63;;
70780;SDS011;59514;48.810;2.134;2023-04-03T21:02:06;2.75;;;2.15;;
70780;SDS011;59514;48.810;2.134;2023-04-03T21:04:36;2.88;;;2.10;;
70780;SDS011;59514;48.810;2.134;2023-04-03T21:21:24;2.75;;;2.38;;
70780;SDS011;59514;48.810;2.134;2023-04-03T21:23:50;3.00;;;2.70;;
70780;SDS011;59514;48.810;2.134;2023-04-03T21:26:17;3.83;;;2.35;;
70780;SDS011;59514;48.810;2.134;2023-04-03T21:28:43;3.35;;;2.20;;
70780;SDS011;59514;48.810;2.134;2023-04-03T21:31:09;4.97;;;2.40;;
70780;SDS011;59514;48.810;2.134;2023-04-03T21:33:35;3.47;;;2.22;;
70780;SDS011;59514;48.810;2.134;2023-04-03T21:36:01;3.53;;;2.40;;
70780;SDS011;59514;48.810;2.134;2023-04-03T21:38:27;6.85;;;2.50;;
70780;SDS011;59514;48.810;2.134;2023-04-03T21:40:57;4.13;;;2.28;;
70780;SDS011;59514;48.810;2.134;2023-04-03T21:43:24;2.28;;;2.08;;
70780;SDS011;59514;48.810;2.134;2023-04-03T21:45:53;2.88;;;2.10;;
70780;SDS011;59514;48.810;2.134;2023-04-03T21:48:19;3.78;;;2.60;;
70780;SDS011;59514;48.810;2.134;2023-04-03T21:50:45;2.40;;;2.20;;
70780;SDS011;59514;48.810;2.134;2023-04-03T21:53:21;3.20;;;2.85;;
70780;SDS011;59514;48.810;2.134;2023-04-03T21:55:54;4.32;;;2.72;;
70780;SDS011;59514;48.810;2.134;2023-04-03T21:58:25;3.83;;;2.92;;
70780;SDS011;59514;48.810;2.134;2023-04-03T22:00:53;6.43;;;2.30;;
70780;SDS011;59514;48.810;2.134;2023-04-03T22:03:18;2.72;;;2.53;;
70780;SDS011;59514;48.810;2.134;2023-04-03T22:05:45;2.63;;;2.38;;
70780;SDS011;59514;48.810;2.134;2023-04-03T22:08:10;2.53;;;2.30;;
70780;SDS011;59514;48.810;2.134;2023-04-03T22:10:35;2.42;;;2.22;;
70780;SDS011;59514;48.810;2.134;2023-04-03T22:13:04;3.75;;;2.13;;
70780;SDS011;59514;48.810;2.134;2023-04-03T22:15:30;2.75;;;2.00;;
70780;SDS011;59514;48.810;2.134;2023-04-03T22:18:00;2.58;;;2.08;;
70780;SDS011;59514;48.810;2.134;2023-04-03T22:20:25;2.47;;;2.05;;
70780;SDS011;59514;48.810;2.134;2023-04-03T22:22:51;3.70;;;2.40;;
70780;SDS011;59514;48.810;2.134;2023-04-03T22:25:16;3.85;;;2.17;;
70780;SDS011;59514;48.810;2.134;2023-04-03T22:27:41;3.05;;;2.70;;
70780;SDS011;59514;48.810;2.134;2023-04-03T22:30:07;3.10;;;2.45;;
70780;SDS011;59514;48.810;2.134;2023-04-03T22:32:32;3.53;;;2.72;;
70780;SDS011;59514;48.810;2.134;2023-04-03T22:34:57;3.22;;;2.38;;
70780;SDS011;59514;48.810;2.134;2023-04-03T22:37:25;2.65;;;2.15;;
70780;SDS011;59514;48.810;2.134;2023-04-03T22:39:51;3.08;;;2.17;;
70780;SDS011;59514;48.810;2.134;2023-04-03T22:42:17;2.10;;;1.92;;
70780;SDS011;59514;48.810;2.134;2023-04-03T22:44:43;2.50;;;2.13;;
70780;SDS011;59514;48.810;2.134;2023-04-03T22:47:08;3.05;;;2.33;;
70780;SDS011;59514;48.810;2.134;2023-04-03T22:49:33;4.93;;;2.47;;
70780;SDS011;59514;48.810;2.134;2023-04-03T22:51:59;2.42;;;2.17;;
70780;SDS011;59514;48.810;2.134;2023-04-03T22:54:24;2.65;;;2.20;;
70780;SDS011;59514;48.810;2.134;2023-04-03T22:56:50;2.70;;;2.17;;
70780;SDS011;59514;48.810;2.134;2023-04-03T22:59:15;4.15;;;2.22;;
70780;SDS011;59514;48.810;2.134;2023-04-03T23:01:40;2.63;;;2.03;;
70780;SDS011;59514;48.810;2.134;2023-04-03T23:04:06;2.08;;;1.88;;
70780;SDS011;59514;48.810;2.134;2023-04-03T23:06:31;3.72;;;2.00;;
70780;SDS011;59514;48.810;2.134;2023-04-03T23:08:56;3.08;;;2.08;;
70780;SDS011;59514;48.810;2.134;2023-04-03T23:11:22;1.98;;;1.85;;
70780;SDS011;59514;48.810;2.134;2023-04-03T23:13:47;3.55;;;2.13;;
70780;SDS011;59514;48.810;2.134;2023-04-03T23:16:12;3.00;;;1.95;;
70780;SDS011;59514;48.810;2.134;2023-04-03T23:18:38;4.45;;;3.75;;
70780;SDS011;59514;48.810;2.134;2023-04-03T23:21:03;2.38;;;2.17;;
70780;SDS011;59514;48.810;2.134;2023-04-03T23:23:31;2.30;;;2.03;;
70780;SDS011;59514;48.810;2.134;2023-04-03T23:25:58;3.42;;;2.50;;
70780;SDS011;59514;48.810;2.134;2023-04-03T23:28:24;2.63;;;2.08;;
70780;SDS011;59514;48.810;2.134;2023-04-03T23:31:00;3.47;;;2.67;;
70780;SDS011;59514;48.810;2.134;2023-04-03T23:33:28;2.28;;;1.80;;
70780;SDS011;59514;48.810;2.134;2023-04-03T23:35:54;3.03;;;2.05;;
70780;SDS011;59514;48.810;2.134;2023-04-03T23:38:19;2.95;;;1.92;;
70780;SDS011;59514;48.810;2.134;2023-04-03T23:40:45;3.08;;;1.98;;
70780;SDS011;59514;48.810;2.134;2023-04-03T23:43:11;4.57;;;2.22;;
70780;SDS011;59514;48.810;2.134;2023-04-03T23:45:36;2.25;;;2.03;;
70780;SDS011;59514;48.810;2.134;2023-04-03T23:48:02;2.15;;;1.70;;
70780;SDS011;59514;48.810;2.134;2023-04-03T23:50:27;2.78;;;1.92;;
70780;SDS011;59514;48.810;2.134;2023-04-03T23:52:53;2.08;;;1.88;;
70780;SDS011;59514;48.810;2.134;2023-04-03T23:55:18;2.88;;;2.10;;
70780;SDS011;59514;48.810;2.134;2023-04-03T23:57:43;2.70;;;2.00;;
